createdAt,value
2019-06-26T00:00:18.672Z,63.65
2019-06-26T00:02:44.897Z,56.55
2019-06-26T00:05:10.983Z,62.43
2019-06-26T00:07:36.841Z,65.97
2019-06-26T00:10:04.318Z,65.17
2019-06-26T00:12:30.271Z,68.75
2019-06-26T00:14:56.086Z,74.58
2019-06-26T00:17:21.950Z,77.70
2019-06-26T00:19:47.813Z,78.37
2019-06-26T00:22:13.688Z,84.67
2019-06-26T00:24:39.571Z,80.77
2019-06-26T00:27:05.430Z,79.77
2019-06-26T00:29:31.620Z,83.50
2019-06-26T00:31:57.578Z,82.02
2019-06-26T00:34:23.478Z,80.83
2019-06-26T00:36:49.316Z,77.15
2019-06-26T00:39:15.166Z,72.62
2019-06-26T00:41:41.041Z,73.90
2019-06-26T00:44:06.976Z,77.27
2019-06-26T00:46:32.850Z,81.67
2019-06-26T00:48:58.761Z,84.42
2019-06-26T00:51:24.622Z,82.50
2019-06-26T00:53:50.481Z,78.52
2019-06-26T00:56:16.354Z,71.65
2019-06-26T00:58:42.230Z,79.05
2019-06-26T01:01:08.080Z,83.22
2019-06-26T01:03:33.927Z,79.00
2019-06-26T01:05:59.878Z,78.67
2019-06-26T01:08:25.745Z,74.77
2019-06-26T01:10:51.606Z,77.97
2019-06-26T01:13:17.453Z,82.88
2019-06-26T01:15:43.541Z,73.02
2019-06-26T01:18:09.519Z,78.90
2019-06-26T01:20:35.370Z,73.78
2019-06-26T01:23:01.224Z,71.20
2019-06-26T01:25:27.090Z,73.33
2019-06-26T01:27:53.760Z,64.03
2019-06-26T01:30:19.995Z,73.35
2019-06-26T01:32:45.879Z,67.50
2019-06-26T01:35:11.958Z,69.07
2019-06-26T01:37:37.813Z,71.22
2019-06-26T01:40:07.352Z,76.42
2019-06-26T01:42:33.196Z,66.33
2019-06-26T01:44:59.058Z,75.90
2019-06-26T01:47:24.927Z,64.35
2019-06-26T01:49:50.774Z,69.25
2019-06-26T01:52:16.638Z,61.88
2019-06-26T01:54:42.501Z,65.50
2019-06-26T01:57:08.363Z,65.32
2019-06-26T01:59:34.253Z,66.07
2019-06-26T02:02:00.115Z,67.45
2019-06-26T02:04:25.990Z,66.12
2019-06-26T02:06:51.847Z,63.08
2019-06-26T02:09:17.713Z,58.58
2019-06-26T02:11:43.554Z,63.70
2019-06-26T02:14:09.412Z,61.15
2019-06-26T02:16:35.278Z,64.22
2019-06-26T02:19:03.038Z,62.65
2019-06-26T02:21:28.898Z,61.92
2019-06-26T02:23:54.753Z,62.78
2019-06-26T02:26:20.689Z,64.00
2019-06-26T02:28:46.670Z,70.87
2019-06-26T02:31:12.551Z,75.65
2019-06-26T02:33:38.416Z,66.07
2019-06-26T02:36:04.330Z,77.27
2019-06-26T02:38:30.224Z,78.17
2019-06-26T02:40:56.065Z,73.10
2019-06-26T02:43:22.028Z,83.37
2019-06-26T02:45:47.917Z,78.65
2019-06-26T02:48:13.771Z,89.65
2019-06-26T02:50:39.614Z,83.37
2019-06-26T02:53:05.490Z,87.90
2019-06-26T02:55:31.341Z,79.00
2019-06-26T02:57:57.214Z,87.00
2019-06-26T03:00:23.081Z,85.97
2019-06-26T03:02:48.969Z,83.65
2019-06-26T03:05:14.828Z,96.65
2019-06-26T03:07:40.752Z,93.15
2019-06-26T03:10:07.574Z,102.82
2019-06-26T03:12:34.062Z,102.42
2019-06-26T03:15:08.858Z,112.12
2019-06-26T03:17:27.730Z,108.83
2019-06-26T03:19:53.606Z,106.15
2019-06-26T03:22:19.441Z,106.67
2019-06-26T03:24:45.307Z,105.97
2019-06-26T03:27:11.160Z,108.85
2019-06-26T03:29:37.014Z,109.57
2019-06-26T03:32:02.882Z,115.47
2019-06-26T03:34:28.784Z,96.47
2019-06-26T03:36:54.663Z,101.67
2019-06-26T03:39:20.647Z,112.45
2019-06-26T03:41:46.566Z,105.37
2019-06-26T03:44:12.543Z,105.00
2019-06-26T03:46:38.422Z,106.32
2019-06-26T03:49:04.277Z,106.37
2019-06-26T03:51:30.145Z,101.45
2019-06-26T03:53:55.999Z,104.10
2019-06-26T03:56:21.871Z,101.35
2019-06-26T03:58:47.728Z,107.65
2019-06-26T04:01:13.625Z,101.95
2019-06-26T04:03:39.450Z,102.07
2019-06-26T04:06:05.293Z,100.25
2019-06-26T04:08:31.143Z,103.50
2019-06-26T04:10:57.000Z,101.65
2019-06-26T04:13:22.857Z,98.30
2019-06-26T04:15:50.914Z,107.63
2019-06-26T04:18:16.486Z,100.35
2019-06-26T04:20:42.339Z,101.87
2019-06-26T04:23:08.263Z,102.45
2019-06-26T04:25:34.208Z,95.57
2019-06-26T04:28:00.004Z,103.15
2019-06-26T04:30:26.389Z,96.42
2019-06-26T04:32:52.355Z,97.67
2019-06-26T04:35:18.226Z,103.60
2019-06-26T04:37:44.129Z,92.65
2019-06-26T04:40:10.294Z,95.65
2019-06-26T04:42:36.124Z,95.25
2019-06-26T04:45:04.381Z,102.15
2019-06-26T04:47:30.245Z,100.82
2019-06-26T04:49:56.097Z,103.10
2019-06-26T04:52:21.991Z,94.42
2019-06-26T04:54:47.854Z,96.08
2019-06-26T04:57:13.699Z,99.72
2019-06-26T04:59:39.746Z,106.45
2019-06-26T05:02:05.626Z,101.70
2019-06-26T05:04:31.487Z,86.42
2019-06-26T05:06:57.341Z,83.72
2019-06-26T05:09:23.198Z,97.25
2019-06-26T05:11:49.053Z,96.87
2019-06-26T05:14:14.926Z,91.42
2019-06-26T05:16:40.784Z,94.50
2019-06-26T05:19:06.628Z,85.42
2019-06-26T05:21:32.481Z,98.12
2019-06-26T05:23:58.329Z,82.88
2019-06-26T05:26:24.203Z,101.25
2019-06-26T05:28:50.078Z,83.35
2019-06-26T05:31:15.933Z,85.38
2019-06-26T05:33:41.853Z,83.20
2019-06-26T05:36:07.785Z,91.78
2019-06-26T05:38:33.652Z,81.95
2019-06-26T05:40:59.605Z,88.47
2019-06-26T05:43:25.528Z,91.17
2019-06-26T05:45:51.382Z,79.07
2019-06-26T05:48:17.347Z,81.87
2019-06-26T05:50:43.363Z,76.90
2019-06-26T05:53:09.203Z,80.83
2019-06-26T05:55:35.059Z,89.05
2019-06-26T05:58:00.901Z,80.07
2019-06-26T06:00:26.775Z,78.60
2019-06-26T06:02:53.990Z,81.40
2019-06-26T06:05:20.115Z,72.92
2019-06-26T06:07:45.983Z,69.80
2019-06-26T06:10:13.356Z,67.82
2019-06-26T06:12:39.226Z,68.35
2019-06-26T06:15:05.598Z,65.50
2019-06-26T06:17:31.456Z,68.97
2019-06-26T06:19:57.301Z,60.03
2019-06-26T06:22:23.178Z,69.75
2019-06-26T06:24:49.015Z,56.90
2019-06-26T06:27:14.892Z,57.10
2019-06-26T06:29:40.756Z,67.25
2019-06-26T06:32:06.607Z,69.90
2019-06-26T06:34:32.471Z,60.83
2019-06-26T06:36:59.228Z,65.83
2019-06-26T06:39:25.150Z,65.83
2019-06-26T06:41:51.010Z,57.05
2019-06-26T06:44:16.880Z,55.73
2019-06-26T06:46:42.733Z,49.73
2019-06-26T06:49:08.693Z,53.10
2019-06-26T06:51:34.560Z,53.85
2019-06-26T06:54:00.409Z,49.35
2019-06-26T06:56:26.259Z,50.98
2019-06-26T06:58:52.145Z,44.23
2019-06-26T07:01:17.982Z,41.77
2019-06-26T07:03:43.846Z,46.98
2019-06-26T07:06:09.705Z,51.65
2019-06-26T07:08:35.561Z,47.13
2019-06-26T07:11:01.512Z,43.80
2019-06-26T07:13:27.506Z,43.95
2019-06-26T07:15:53.411Z,44.42
2019-06-26T07:18:19.279Z,46.68
2019-06-26T07:20:45.136Z,45.55
2019-06-26T07:23:11.010Z,49.55
2019-06-26T07:25:36.937Z,41.23
2019-06-26T07:28:02.962Z,40.50
2019-06-26T07:30:28.812Z,39.33
2019-06-26T07:32:54.661Z,47.30
2019-06-26T07:35:20.540Z,45.90
2019-06-26T07:37:46.470Z,49.23
2019-06-26T07:40:12.936Z,44.67
2019-06-26T07:42:38.800Z,44.85
2019-06-26T07:45:05.270Z,40.70
2019-06-26T07:47:42.698Z,48.13
2019-06-26T07:49:58.887Z,44.15
2019-06-26T07:52:24.761Z,39.55
2019-06-26T07:54:50.598Z,44.70
2019-06-26T07:57:16.440Z,38.45
2019-06-26T07:59:42.317Z,48.45
2019-06-26T08:02:08.259Z,46.58
2019-06-26T08:04:34.040Z,44.38
2019-06-26T08:06:59.866Z,42.65
2019-06-26T08:09:25.721Z,46.60
2019-06-26T08:11:51.602Z,54.40
2019-06-26T08:14:17.450Z,46.10
2019-06-26T08:16:43.308Z,42.10
2019-06-26T08:19:09.179Z,38.10
2019-06-26T08:21:35.030Z,43.70
2019-06-26T08:24:00.875Z,45.23
2019-06-26T08:26:26.744Z,42.55
2019-06-26T08:28:52.650Z,50.03
2019-06-26T08:31:18.504Z,46.13
2019-06-26T08:33:44.380Z,43.40
2019-06-26T08:36:10.230Z,48.05
2019-06-26T08:38:36.038Z,50.70
2019-06-26T08:41:01.892Z,52.10
2019-06-26T08:43:31.090Z,47.95
2019-06-26T08:45:55.490Z,50.25
2019-06-26T08:48:38.442Z,48.78
2019-06-26T08:50:49.205Z,49.10
2019-06-26T08:53:15.406Z,44.55
2019-06-26T08:55:41.277Z,42.70
2019-06-26T08:58:07.247Z,48.58
2019-06-26T09:00:33.118Z,50.78
2019-06-26T09:02:58.981Z,49.40
2019-06-26T09:05:24.865Z,49.13
2019-06-26T09:07:50.788Z,46.35
2019-06-26T09:10:17.191Z,50.10
2019-06-26T09:12:43.061Z,52.17
2019-06-26T09:15:09.330Z,43.52
2019-06-26T09:17:35.307Z,44.03
2019-06-26T09:20:02.085Z,49.53
2019-06-26T09:22:28.000Z,50.83
2019-06-26T09:24:53.854Z,49.50
2019-06-26T09:27:19.753Z,45.78
2019-06-26T09:29:45.604Z,43.17
2019-06-26T09:32:11.472Z,50.85
2019-06-26T09:34:37.328Z,47.08
2019-06-26T09:37:03.156Z,53.68
2019-06-26T09:39:29.061Z,49.60
2019-06-26T09:41:54.901Z,52.23
2019-06-26T09:44:20.774Z,50.30
2019-06-26T09:46:46.640Z,51.55
2019-06-26T09:49:12.543Z,53.45
2019-06-26T09:51:38.372Z,57.73
2019-06-26T09:54:04.266Z,71.97
2019-06-26T09:56:30.349Z,55.20
2019-06-26T09:58:56.416Z,60.38
2019-06-26T10:01:22.386Z,68.02
2019-06-26T10:03:48.285Z,70.70
2019-06-26T10:06:14.120Z,58.30
2019-06-26T10:08:39.978Z,58.68
2019-06-26T10:11:06.026Z,57.83
2019-06-26T10:13:31.961Z,61.83
2019-06-26T10:16:00.415Z,59.23
2019-06-26T10:18:25.540Z,62.90
2019-06-26T10:20:51.387Z,58.65
2019-06-26T10:23:17.254Z,56.20
2019-06-26T10:25:43.249Z,61.70
2019-06-26T10:28:09.100Z,62.53
2019-06-26T10:30:35.016Z,58.38
2019-06-26T10:33:00.982Z,62.30
2019-06-26T10:35:26.878Z,59.42
2019-06-26T10:37:52.775Z,54.35
2019-06-26T10:40:19.116Z,55.73
2019-06-26T10:42:44.971Z,57.55
2019-06-26T10:45:11.133Z,54.93
2019-06-26T10:47:40.248Z,56.70
2019-06-26T10:50:06.833Z,62.88
2019-06-26T10:52:33.339Z,52.85
2019-06-26T10:54:59.197Z,53.75
2019-06-26T10:57:25.053Z,49.95
2019-06-26T10:59:55.715Z,57.35
2019-06-26T11:02:20.998Z,50.98
2019-06-26T11:04:47.264Z,52.08
2019-06-26T11:07:13.185Z,46.33
2019-06-26T11:09:39.057Z,54.05
2019-06-26T11:12:04.891Z,49.30
2019-06-26T11:14:30.748Z,44.83
2019-06-26T11:16:59.337Z,53.60
2019-06-26T11:19:25.186Z,38.53
2019-06-26T11:21:51.040Z,39.15
2019-06-26T11:24:17.027Z,38.20
2019-06-26T11:26:42.978Z,41.92
2019-06-26T11:29:08.856Z,41.70
2019-06-26T11:31:34.728Z,40.38
2019-06-26T11:34:01.683Z,36.10
2019-06-26T11:36:27.542Z,41.92
2019-06-26T11:38:53.389Z,38.45
2019-06-26T11:41:19.244Z,35.08
2019-06-26T11:43:45.100Z,35.15
2019-06-26T11:46:10.991Z,37.03
2019-06-26T11:48:36.918Z,35.90
2019-06-26T11:51:03.006Z,35.25
2019-06-26T11:53:33.301Z,32.70
2019-06-26T11:55:59.497Z,30.52
2019-06-26T11:58:25.344Z,31.70
2019-06-26T12:00:51.757Z,27.48
2019-06-26T12:03:17.638Z,29.85
2019-06-26T12:05:43.504Z,29.48
2019-06-26T12:08:09.602Z,29.10
2019-06-26T12:10:35.477Z,26.25
2019-06-26T12:13:04.092Z,23.60
2019-06-26T12:15:29.501Z,25.95
2019-06-26T12:17:55.368Z,25.65
2019-06-26T12:20:21.434Z,23.87
2019-06-26T12:22:47.285Z,26.02
2019-06-26T12:25:13.366Z,22.37
2019-06-26T12:27:39.221Z,22.73
2019-06-26T12:30:05.995Z,22.30
2019-06-26T12:32:41.514Z,20.88
2019-06-26T12:34:59.658Z,24.00
2019-06-26T12:37:36.875Z,18.00
2019-06-26T12:39:53.284Z,17.23
2019-06-26T12:42:19.194Z,17.20
2019-06-26T12:44:45.046Z,17.42
2019-06-26T12:47:10.893Z,16.75
2019-06-26T12:49:36.776Z,18.25
2019-06-26T12:52:03.230Z,18.20
2019-06-26T12:54:29.091Z,18.98
2019-06-26T12:56:54.972Z,20.90
2019-06-26T12:59:20.854Z,19.07
2019-06-26T13:01:46.712Z,21.95
2019-06-26T13:04:12.624Z,19.50
2019-06-26T13:06:38.450Z,18.10
2019-06-26T13:09:06.105Z,20.27
2019-06-26T13:11:31.974Z,18.90
2019-06-26T13:14:02.756Z,17.07
2019-06-26T13:16:25.606Z,14.45
2019-06-26T13:18:51.474Z,16.85
2019-06-26T13:21:17.336Z,15.80
2019-06-26T13:23:43.232Z,14.78
2019-06-26T13:26:09.074Z,18.92
2019-06-26T13:28:34.930Z,15.30
2019-06-26T13:31:00.836Z,19.27
2019-06-26T13:33:26.692Z,22.55
2019-06-26T13:35:52.560Z,26.57
2019-06-26T13:38:18.411Z,23.22
2019-06-26T13:40:44.276Z,18.37
2019-06-26T13:43:10.162Z,20.72
2019-06-26T13:45:36.010Z,15.80
2019-06-26T13:48:01.950Z,17.27
2019-06-26T13:50:27.949Z,19.40
2019-06-26T13:52:53.796Z,17.15
2019-06-26T13:55:19.676Z,18.00
2019-06-26T13:57:45.541Z,19.67
2019-06-26T14:00:11.942Z,15.18
2019-06-26T14:02:37.762Z,18.92
2019-06-26T14:05:07.830Z,15.03
2019-06-26T14:07:36.412Z,14.53
2019-06-26T14:10:04.261Z,15.93
2019-06-26T14:12:30.161Z,18.65
2019-06-26T14:14:58.037Z,13.32
2019-06-26T14:17:23.859Z,21.00
2019-06-26T14:19:49.729Z,16.85
2019-06-26T14:22:15.584Z,14.25
2019-06-26T14:24:41.434Z,15.03
2019-06-26T14:27:07.307Z,15.78
2019-06-26T14:29:33.300Z,12.05
2019-06-26T14:31:59.165Z,12.18
2019-06-26T14:34:27.977Z,17.32
2019-06-26T14:36:53.743Z,14.10
2019-06-26T14:39:19.593Z,14.25
2019-06-26T14:41:45.575Z,14.83
2019-06-26T14:44:11.437Z,8.75
2019-06-26T14:46:37.275Z,13.78
2019-06-26T14:49:03.161Z,12.63
2019-06-26T14:51:43.498Z,9.48
2019-06-26T14:53:56.742Z,12.90
2019-06-26T14:56:22.604Z,13.05
2019-06-26T14:58:48.446Z,10.78
2019-06-26T15:01:14.402Z,14.47
2019-06-26T15:03:40.268Z,8.73
2019-06-26T15:06:15.754Z,9.48
2019-06-26T15:08:33.877Z,10.30
2019-06-26T15:10:59.811Z,10.48
2019-06-26T15:13:25.679Z,11.60
2019-06-26T15:15:54.652Z,10.58
2019-06-26T15:18:19.307Z,9.03
2019-06-26T15:20:45.190Z,7.83
2019-06-26T15:23:11.090Z,7.47
2019-06-26T15:25:36.938Z,5.58
2019-06-26T15:28:02.825Z,9.85
2019-06-26T15:30:28.779Z,8.85
2019-06-26T15:32:54.651Z,17.37
2019-06-26T15:35:20.524Z,11.30
2019-06-26T15:37:46.489Z,11.95
2019-06-26T15:40:13.891Z,10.25
2019-06-26T15:42:40.252Z,9.15
2019-06-26T15:45:07.919Z,14.43
2019-06-26T15:47:35.726Z,11.28
2019-06-26T15:50:04.083Z,15.32
2019-06-26T15:52:31.565Z,6.37
2019-06-26T15:54:57.622Z,8.28
2019-06-26T15:57:23.494Z,6.72
2019-06-26T15:59:49.364Z,6.05
2019-06-26T16:02:15.324Z,9.03
2019-06-26T16:04:41.177Z,9.75
2019-06-26T16:07:07.055Z,7.25
2019-06-26T16:09:32.907Z,8.28
2019-06-26T16:11:59.085Z,13.10
2019-06-26T16:14:25.087Z,16.20
2019-06-26T16:16:52.913Z,16.12
2019-06-26T16:19:23.464Z,26.20
2019-06-26T16:21:49.315Z,21.20
2019-06-26T16:24:15.166Z,22.55
2019-06-26T16:26:41.073Z,10.65
2019-06-26T16:29:06.931Z,12.55
2019-06-26T16:31:32.827Z,8.28
2019-06-26T16:33:58.752Z,7.83
2019-06-26T16:36:24.646Z,11.08
2019-06-26T16:38:50.547Z,6.40
2019-06-26T16:41:16.490Z,6.70
2019-06-26T16:43:42.373Z,12.82
2019-06-26T16:46:08.193Z,5.40
2019-06-26T16:48:34.054Z,9.75
2019-06-26T16:50:59.908Z,9.08
2019-06-26T16:53:25.769Z,6.78
2019-06-26T16:55:53.129Z,7.40
2019-06-26T16:58:19.018Z,8.90
2019-06-26T17:00:44.912Z,4.33
2019-06-26T17:03:11.347Z,5.10
2019-06-26T17:05:37.234Z,5.87
2019-06-26T17:08:03.313Z,5.10
2019-06-26T17:10:29.172Z,5.37
2019-06-26T17:12:55.049Z,2.50
2019-06-26T17:15:21.028Z,7.92
2019-06-26T17:17:46.986Z,8.98
2019-06-26T17:20:14.992Z,3.85
2019-06-26T17:22:40.840Z,5.03
2019-06-26T17:25:07.190Z,4.78
2019-06-26T17:27:33.164Z,4.62
2019-06-26T17:29:59.086Z,2.98
2019-06-26T17:32:25.069Z,3.42
2019-06-26T17:34:50.952Z,10.48
2019-06-26T17:37:16.894Z,3.87
2019-06-26T17:39:42.834Z,3.75
2019-06-26T17:42:08.708Z,4.53
2019-06-26T17:44:34.553Z,4.80
2019-06-26T17:47:00.407Z,5.78
2019-06-26T17:49:26.288Z,7.08
2019-06-26T17:51:52.135Z,10.00
2019-06-26T17:54:18.006Z,8.70
2019-06-26T17:56:43.862Z,5.90
2019-06-26T17:59:09.716Z,9.70
2019-06-26T18:01:35.584Z,19.25
2019-06-26T18:04:01.442Z,27.52
2019-06-26T18:06:27.302Z,9.25
2019-06-26T18:08:53.157Z,12.58
2019-06-26T18:11:19.019Z,11.28
2019-06-26T18:13:44.880Z,5.55
2019-06-26T18:16:10.744Z,8.28
2019-06-26T18:18:36.840Z,5.60
2019-06-26T18:21:02.989Z,7.20
2019-06-26T18:23:37.785Z,6.80
2019-06-26T18:26:12.369Z,7.00
2019-06-26T18:28:27.857Z,7.90
2019-06-26T18:30:53.854Z,5.58
2019-06-26T18:33:19.709Z,7.50
2019-06-26T18:35:45.560Z,24.10
2019-06-26T18:38:11.441Z,12.40
2019-06-26T18:40:37.301Z,10.00
2019-06-26T18:43:03.396Z,5.35
2019-06-26T18:45:32.215Z,9.38
2019-06-26T18:47:58.066Z,8.08
2019-06-26T18:50:24.464Z,8.75
2019-06-26T18:52:52.270Z,7.22
2019-06-26T18:55:20.029Z,6.03
2019-06-26T18:57:45.909Z,7.67
2019-06-26T19:00:12.509Z,9.95
2019-06-26T19:02:38.402Z,8.25
2019-06-26T19:05:07.005Z,13.48
2019-06-26T19:07:33.031Z,10.20
2019-06-26T19:09:58.949Z,12.33
2019-06-26T19:12:25.177Z,12.25
2019-06-26T19:14:51.069Z,13.80
2019-06-26T19:17:17.175Z,10.88
2019-06-26T19:19:43.060Z,12.15
2019-06-26T19:22:08.953Z,8.70
2019-06-26T19:24:34.812Z,7.22
2019-06-26T19:27:00.696Z,9.88
2019-06-26T19:29:26.558Z,9.90
2019-06-26T19:31:55.467Z,16.87
2019-06-26T19:34:21.345Z,7.47
2019-06-26T19:36:50.522Z,9.03
2019-06-26T19:39:15.085Z,6.60
2019-06-26T19:41:40.955Z,8.85
2019-06-26T19:44:08.982Z,11.90
2019-06-26T19:46:34.750Z,8.13
2019-06-26T19:49:00.626Z,8.13
2019-06-26T19:51:26.919Z,7.15
2019-06-26T19:53:52.814Z,10.38
2019-06-26T19:56:20.214Z,12.90
2019-06-26T19:58:46.326Z,6.78
2019-06-26T20:01:12.216Z,6.20
2019-06-26T20:03:38.153Z,8.63
2019-06-26T20:06:04.217Z,11.20
2019-06-26T20:08:30.086Z,11.85
2019-06-26T20:10:55.934Z,12.13
2019-06-26T20:13:21.811Z,7.67
2019-06-26T20:15:47.663Z,11.90
2019-06-26T20:18:13.525Z,10.55
2019-06-26T20:20:39.407Z,12.88
2019-06-26T20:23:05.252Z,13.60
2019-06-26T20:25:31.102Z,7.70
2019-06-26T20:27:57.435Z,9.05
2019-06-26T20:30:27.079Z,8.60
2019-06-26T20:32:52.934Z,7.65
2019-06-26T20:35:18.804Z,8.53
2019-06-26T20:37:44.673Z,14.58
2019-06-26T20:40:10.855Z,8.25
2019-06-26T20:42:36.738Z,8.53
2019-06-26T20:45:04.109Z,11.83
2019-06-26T20:47:29.961Z,6.17
2019-06-26T20:49:55.861Z,10.68
2019-06-26T20:52:21.842Z,13.95
2019-06-26T20:55:00.617Z,8.60
2019-06-26T20:57:16.322Z,8.05
2019-06-26T20:59:42.189Z,12.35
2019-06-26T21:02:08.090Z,8.95
2019-06-26T21:04:33.986Z,8.70
2019-06-26T21:06:59.904Z,11.88
2019-06-26T21:09:25.841Z,7.83
2019-06-26T21:11:51.758Z,5.35
2019-06-26T21:14:17.738Z,14.68
2019-06-26T21:16:43.592Z,9.90
2019-06-26T21:19:09.456Z,8.68
2019-06-26T21:21:35.496Z,12.23
2019-06-26T21:24:01.337Z,10.63
2019-06-26T21:26:27.217Z,17.73
2019-06-26T21:28:53.093Z,11.25
2019-06-26T21:31:18.938Z,11.45
2019-06-26T21:33:44.815Z,8.55
2019-06-26T21:36:10.855Z,11.73
2019-06-26T21:38:36.848Z,10.68
2019-06-26T21:41:02.808Z,15.72
2019-06-26T21:43:29.588Z,8.68
2019-06-26T21:45:55.452Z,12.45
2019-06-26T21:48:21.324Z,11.68
2019-06-26T21:50:47.192Z,15.23
2019-06-26T21:53:13.073Z,7.80
2019-06-26T21:55:39.875Z,12.35
2019-06-26T21:58:05.862Z,10.35
2019-06-26T22:00:33.634Z,15.08
2019-06-26T22:02:59.486Z,10.90
2019-06-26T22:05:25.763Z,7.42
2019-06-26T22:07:51.631Z,7.28
2019-06-26T22:10:17.480Z,10.13
2019-06-26T22:12:43.325Z,12.43
2019-06-26T22:15:09.999Z,8.13
2019-06-26T22:17:35.841Z,8.33
2019-06-26T22:20:07.971Z,5.00
2019-06-26T22:22:32.266Z,6.80
2019-06-26T22:24:58.190Z,13.05
2019-06-26T22:27:24.012Z,9.73
2019-06-26T22:29:49.936Z,10.32
2019-06-26T22:32:15.793Z,8.20
2019-06-26T22:34:41.808Z,12.25
2019-06-26T22:37:07.744Z,6.95
2019-06-26T22:39:33.612Z,10.98
2019-06-26T22:41:59.463Z,8.23
2019-06-26T22:44:25.350Z,10.53
2019-06-26T22:46:51.218Z,11.83
2019-06-26T22:49:17.061Z,7.72
2019-06-26T22:51:42.971Z,8.65
2019-06-26T22:54:08.814Z,10.50
2019-06-26T22:56:34.668Z,9.43
2019-06-26T22:59:00.595Z,11.08
2019-06-26T23:01:26.469Z,12.73
2019-06-26T23:03:52.317Z,8.53
2019-06-26T23:06:18.226Z,18.87
2019-06-26T23:08:44.197Z,13.95
2019-06-26T23:11:10.057Z,15.10
2019-06-26T23:13:35.921Z,14.70
2019-06-26T23:16:01.847Z,12.70
2019-06-26T23:18:27.665Z,10.80
2019-06-26T23:20:53.525Z,14.47
2019-06-26T23:23:19.536Z,12.93
2019-06-26T23:25:45.386Z,15.15
2019-06-26T23:28:11.265Z,14.68
2019-06-26T23:30:37.133Z,12.53
2019-06-26T23:33:03.010Z,10.08
2019-06-26T23:35:28.862Z,12.23
2019-06-26T23:37:54.956Z,10.00
2019-06-26T23:40:21.132Z,13.30
2019-06-26T23:42:46.989Z,16.25
2019-06-26T23:45:13.057Z,10.55
2019-06-26T23:47:39.107Z,12.15
2019-06-26T23:50:08.835Z,12.28
2019-06-26T23:52:34.719Z,6.80
2019-06-26T23:55:00.622Z,9.50
2019-06-26T23:57:26.606Z,11.75
2019-06-26T23:59:53.192Z,14.93
